sensor_id;sensor_type;location;lat;lon;timestamp;P1;durP1;ratioP1;P2;durP2;ratioP2
20731;SDS011;10527;52.124;5.196;2023-07-24T00:01:53;3.72;;;2.75;;
20731;SDS011;10527;52.124;5.196;2023-07-24T00:04:20;3.30;;;2.03;;
20731;SDS011;10527;52.124;5.196;2023-07-24T00:06:47;5.45;;;2.90;;
20731;SDS011;10527;52.124;5.196;2023-07-24T00:09:13;3.65;;;2.42;;
20731;SDS011;10527;52.124;5.196;2023-07-24T00:11:40;2.75;;;2.22;;
20731;SDS011;10527;52.124;5.196;2023-07-24T00:14:07;4.22;;;2.33;;
20731;SDS011;10527;52.124;5.196;2023-07-24T00:16:34;2.38;;;2.13;;
20731;SDS011;10527;52.124;5.196;2023-07-24T00:19:01;2.80;;;2.20;;
20731;SDS011;10527;52.124;5.196;2023-07-24T00:21:28;4.18;;;2.30;;
20731;SDS011;10527;52.124;5.196;2023-07-24T00:23:55;3.00;;;2.30;;
20731;SDS011;10527;52.124;5.196;2023-07-24T00:26:22;4.25;;;2.60;;
20731;SDS011;10527;52.124;5.196;2023-07-24T00:28:48;4.25;;;2.70;;
20731;SDS011;10527;52.124;5.196;2023-07-24T00:31:15;3.08;;;2.25;;
20731;SDS011;10527;52.124;5.196;2023-07-24T00:33:44;4.03;;;2.58;;
20731;SDS011;10527;52.124;5.196;2023-07-24T00:36:11;3.20;;;2.70;;
20731;SDS011;10527;52.124;5.196;2023-07-24T00:38:39;2.75;;;2.10;;
20731;SDS011;10527;52.124;5.196;2023-07-24T00:41:06;3.00;;;2.22;;
20731;SDS011;10527;52.124;5.196;2023-07-24T00:43:32;2.53;;;2.13;;
20731;SDS011;10527;52.124;5.196;2023-07-24T00:45:59;2.88;;;2.38;;
20731;SDS011;10527;52.124;5.196;2023-07-24T00:48:27;2.28;;;1.90;;
20731;SDS011;10527;52.124;5.196;2023-07-24T00:50:54;2.70;;;2.30;;
20731;SDS011;10527;52.124;5.196;2023-07-24T00:53:22;4.18;;;2.00;;
20731;SDS011;10527;52.124;5.196;2023-07-24T00:55:49;3.00;;;2.47;;
20731;SDS011;10527;52.124;5.196;2023-07-24T00:58:16;2.85;;;1.98;;
20731;SDS011;10527;52.124;5.196;2023-07-24T01:00:45;3.05;;;2.47;;
20731;SDS011;10527;52.124;5.196;2023-07-24T01:03:12;2.97;;;2.40;;
20731;SDS011;10527;52.124;5.196;2023-07-24T01:05:39;2.67;;;2.28;;
20731;SDS011;10527;52.124;5.196;2023-07-24T01:08:09;4.95;;;2.25;;
20731;SDS011;10527;52.124;5.196;2023-07-24T01:10:36;3.03;;;2.35;;
20731;SDS011;10527;52.124;5.196;2023-07-24T01:13:08;3.17;;;2.42;;
20731;SDS011;10527;52.124;5.196;2023-07-24T01:15:45;2.88;;;2.05;;
20731;SDS011;10527;52.124;5.196;2023-07-24T01:18:24;2.72;;;2.10;;
20731;SDS011;10527;52.124;5.196;2023-07-24T01:20:56;3.00;;;2.45;;
20731;SDS011;10527;52.124;5.196;2023-07-24T01:26:39;3.63;;;2.30;;
20731;SDS011;10527;52.124;5.196;2023-07-24T01:29:06;2.50;;;2.08;;
20731;SDS011;10527;52.124;5.196;2023-07-24T01:31:33;2.53;;;1.88;;
20731;SDS011;10527;52.124;5.196;2023-07-24T01:34:00;2.95;;;2.33;;
20731;SDS011;10527;52.124;5.196;2023-07-24T01:36:27;6.75;;;2.63;;
20731;SDS011;10527;52.124;5.196;2023-07-24T01:38:54;4.28;;;2.42;;
20731;SDS011;10527;52.124;5.196;2023-07-24T01:41:22;2.83;;;2.13;;
20731;SDS011;10527;52.124;5.196;2023-07-24T01:43:50;3.78;;;2.40;;
20731;SDS011;10527;52.124;5.196;2023-07-24T01:46:17;3.00;;;2.03;;
20731;SDS011;10527;52.124;5.196;2023-07-24T01:48:44;2.97;;;2.28;;
20731;SDS011;10527;52.124;5.196;2023-07-24T01:51:12;3.05;;;2.08;;
20731;SDS011;10527;52.124;5.196;2023-07-24T01:53:39;4.15;;;2.40;;
20731;SDS011;10527;52.124;5.196;2023-07-24T01:56:06;2.97;;;1.98;;
20731;SDS011;10527;52.124;5.196;2023-07-24T01:58:33;3.17;;;2.05;;
20731;SDS011;10527;52.124;5.196;2023-07-24T02:01:01;2.33;;;1.85;;
20731;SDS011;10527;52.124;5.196;2023-07-24T02:03:28;3.20;;;2.17;;
20731;SDS011;10527;52.124;5.196;2023-07-24T02:05:55;2.60;;;1.75;;
20731;SDS011;10527;52.124;5.196;2023-07-24T02:08:22;3.17;;;2.38;;
20731;SDS011;10527;52.124;5.196;2023-07-24T02:10:49;2.05;;;1.70;;
20731;SDS011;10527;52.124;5.196;2023-07-24T02:13:17;3.25;;;1.95;;
20731;SDS011;10527;52.124;5.196;2023-07-24T02:15:43;3.03;;;2.20;;
20731;SDS011;10527;52.124;5.196;2023-07-24T02:18:10;2.25;;;1.75;;
20731;SDS011;10527;52.124;5.196;2023-07-24T02:20:37;2.33;;;1.85;;
20731;SDS011;10527;52.124;5.196;2023-07-24T02:23:04;3.22;;;2.20;;
20731;SDS011;10527;52.124;5.196;2023-07-24T02:25:30;2.35;;;1.70;;
20731;SDS011;10527;52.124;5.196;2023-07-24T02:27:57;4.05;;;2.25;;
20731;SDS011;10527;52.124;5.196;2023-07-24T02:30:24;2.45;;;2.10;;
20731;SDS011;10527;52.124;5.196;2023-07-24T02:32:51;2.30;;;1.80;;
20731;SDS011;10527;52.124;5.196;2023-07-24T02:35:18;2.25;;;1.67;;
20731;SDS011;10527;52.124;5.196;2023-07-24T02:37:44;2.88;;;2.22;;
20731;SDS011;10527;52.124;5.196;2023-07-24T02:40:11;2.83;;;2.10;;
20731;SDS011;10527;52.124;5.196;2023-07-24T02:42:38;2.15;;;1.67;;
20731;SDS011;10527;52.124;5.196;2023-07-24T02:45:07;3.33;;;2.20;;
20731;SDS011;10527;52.124;5.196;2023-07-24T02:47:37;2.63;;;1.83;;
20731;SDS011;10527;52.124;5.196;2023-07-24T02:50:04;2.60;;;2.08;;
20731;SDS011;10527;52.124;5.196;2023-07-24T02:52:31;4.20;;;2.60;;
20731;SDS011;10527;52.124;5.196;2023-07-24T02:54:58;2.22;;;1.90;;
20731;SDS011;10527;52.124;5.196;2023-07-24T02:57:25;2.55;;;2.03;;
20731;SDS011;10527;52.124;5.196;2023-07-24T02:59:52;3.42;;;2.15;;
20731;SDS011;10527;52.124;5.196;2023-07-24T03:02:18;2.58;;;2.10;;
20731;SDS011;10527;52.124;5.196;2023-07-24T03:04:45;3.65;;;2.58;;
20731;SDS011;10527;52.124;5.196;2023-07-24T03:07:12;3.08;;;2.03;;
20731;SDS011;10527;52.124;5.196;2023-07-24T03:09:39;2.70;;;2.10;;
20731;SDS011;10527;52.124;5.196;2023-07-24T03:12:06;3.03;;;2.38;;
20731;SDS011;10527;52.124;5.196;2023-07-24T03:14:33;3.28;;;2.28;;
20731;SDS011;10527;52.124;5.196;2023-07-24T03:17:00;3.83;;;2.10;;
20731;SDS011;10527;52.124;5.196;2023-07-24T03:19:28;4.63;;;2.53;;
20731;SDS011;10527;52.124;5.196;2023-07-24T03:21:55;3.13;;;2.17;;
20731;SDS011;10527;52.124;5.196;2023-07-24T03:24:22;4.45;;;2.78;;
20731;SDS011;10527;52.124;5.196;2023-07-24T03:26:49;3.95;;;2.85;;
20731;SDS011;10527;52.124;5.196;2023-07-24T03:29:16;5.55;;;3.10;;
20731;SDS011;10527;52.124;5.196;2023-07-24T03:31:43;3.72;;;2.78;;
20731;SDS011;10527;52.124;5.196;2023-07-24T03:34:11;4.55;;;2.92;;
20731;SDS011;10527;52.124;5.196;2023-07-24T03:36:38;4.47;;;3.00;;
20731;SDS011;10527;52.124;5.196;2023-07-24T03:39:08;4.05;;;2.72;;
20731;SDS011;10527;52.124;5.196;2023-07-24T03:41:37;3.92;;;2.80;;
20731;SDS011;10527;52.124;5.196;2023-07-24T03:44:05;5.15;;;3.25;;
20731;SDS011;10527;52.124;5.196;2023-07-24T03:46:32;4.38;;;3.05;;
20731;SDS011;10527;52.124;5.196;2023-07-24T03:48:59;6.47;;;3.83;;
20731;SDS011;10527;52.124;5.196;2023-07-24T03:51:26;5.78;;;4.00;;
20731;SDS011;10527;52.124;5.196;2023-07-24T03:53:53;4.00;;;3.20;;
20731;SDS011;10527;52.124;5.196;2023-07-24T03:56:20;3.60;;;3.15;;
20731;SDS011;10527;52.124;5.196;2023-07-24T03:58:47;4.82;;;3.72;;
20731;SDS011;10527;52.124;5.196;2023-07-24T04:01:14;4.72;;;3.65;;
20731;SDS011;10527;52.124;5.196;2023-07-24T04:03:41;4.47;;;3.17;;
20731;SDS011;10527;52.124;5.196;2023-07-24T04:06:07;5.20;;;4.05;;
20731;SDS011;10527;52.124;5.196;2023-07-24T04:08:35;4.25;;;3.05;;
20731;SDS011;10527;52.124;5.196;2023-07-24T04:11:02;5.00;;;3.45;;
20731;SDS011;10527;52.124;5.196;2023-07-24T04:13:31;3.58;;;3.15;;
20731;SDS011;10527;52.124;5.196;2023-07-24T04:15:58;4.32;;;3.28;;
20731;SDS011;10527;52.124;5.196;2023-07-24T04:18:25;3.72;;;3.22;;
20731;SDS011;10527;52.124;5.196;2023-07-24T04:20:52;4.10;;;3.60;;
20731;SDS011;10527;52.124;5.196;2023-07-24T04:23:19;5.53;;;3.10;;
20731;SDS011;10527;52.124;5.196;2023-07-24T04:25:46;4.85;;;3.50;;
20731;SDS011;10527;52.124;5.196;2023-07-24T04:28:14;6.80;;;3.25;;
20731;SDS011;10527;52.124;5.196;2023-07-24T04:30:41;4.60;;;2.55;;
20731;SDS011;10527;52.124;5.196;2023-07-24T04:33:10;5.22;;;3.33;;
20731;SDS011;10527;52.124;5.196;2023-07-24T04:35:37;4.13;;;3.30;;
20731;SDS011;10527;52.124;5.196;2023-07-24T04:38:04;3.65;;;3.25;;
20731;SDS011;10527;52.124;5.196;2023-07-24T04:40:30;4.72;;;3.30;;
20731;SDS011;10527;52.124;5.196;2023-07-24T04:42:57;4.50;;;2.95;;
20731;SDS011;10527;52.124;5.196;2023-07-24T04:45:24;4.80;;;3.15;;
20731;SDS011;10527;52.124;5.196;2023-07-24T04:47:51;5.30;;;3.80;;
20731;SDS011;10527;52.124;5.196;2023-07-24T04:50:18;4.40;;;3.30;;
20731;SDS011;10527;52.124;5.196;2023-07-24T04:52:45;4.82;;;4.07;;
20731;SDS011;10527;52.124;5.196;2023-07-24T04:55:12;6.40;;;4.15;;
20731;SDS011;10527;52.124;5.196;2023-07-24T04:57:39;7.82;;;4.10;;
20731;SDS011;10527;52.124;5.196;2023-07-24T05:00:06;4.72;;;3.75;;
20731;SDS011;10527;52.124;5.196;2023-07-24T05:02:35;5.70;;;3.95;;
20731;SDS011;10527;52.124;5.196;2023-07-24T05:05:02;5.25;;;4.20;;
20731;SDS011;10527;52.124;5.196;2023-07-24T05:07:29;5.85;;;3.70;;
20731;SDS011;10527;52.124;5.196;2023-07-24T05:09:55;5.38;;;3.83;;
20731;SDS011;10527;52.124;5.196;2023-07-24T05:12:23;5.38;;;3.85;;
20731;SDS011;10527;52.124;5.196;2023-07-24T05:14:50;6.88;;;3.97;;
20731;SDS011;10527;52.124;5.196;2023-07-24T05:17:17;4.93;;;3.83;;
20731;SDS011;10527;52.124;5.196;2023-07-24T05:19:44;5.47;;;4.00;;
20731;SDS011;10527;52.124;5.196;2023-07-24T05:22:11;6.60;;;4.05;;
20731;SDS011;10527;52.124;5.196;2023-07-24T05:24:37;5.50;;;3.83;;
20731;SDS011;10527;52.124;5.196;2023-07-24T05:27:05;6.18;;;4.15;;
20731;SDS011;10527;52.124;5.196;2023-07-24T05:29:32;4.85;;;3.88;;
20731;SDS011;10527;52.124;5.196;2023-07-24T05:31:59;4.60;;;3.47;;
20731;SDS011;10527;52.124;5.196;2023-07-24T05:34:26;4.05;;;3.63;;
20731;SDS011;10527;52.124;5.196;2023-07-24T05:36:53;5.18;;;4.13;;
20731;SDS011;10527;52.124;5.196;2023-07-24T05:39:20;5.25;;;3.63;;
20731;SDS011;10527;52.124;5.196;2023-07-24T05:41:47;6.40;;;4.30;;
20731;SDS011;10527;52.124;5.196;2023-07-24T05:44:14;5.13;;;4.05;;
20731;SDS011;10527;52.124;5.196;2023-07-24T05:46:41;5.28;;;4.40;;
20731;SDS011;10527;52.124;5.196;2023-07-24T05:49:09;5.65;;;3.70;;
20731;SDS011;10527;52.124;5.196;2023-07-24T05:51:37;6.10;;;3.33;;
20731;SDS011;10527;52.124;5.196;2023-07-24T05:54:04;5.53;;;3.28;;
20731;SDS011;10527;52.124;5.196;2023-07-24T05:56:30;6.28;;;3.70;;
20731;SDS011;10527;52.124;5.196;2023-07-24T05:58:58;6.18;;;4.03;;
20731;SDS011;10527;52.124;5.196;2023-07-24T06:01:25;6.40;;;3.70;;
20731;SDS011;10527;52.124;5.196;2023-07-24T06:03:51;4.65;;;3.45;;
20731;SDS011;10527;52.124;5.196;2023-07-24T06:06:18;8.10;;;3.42;;
20731;SDS011;10527;52.124;5.196;2023-07-24T06:08:45;6.15;;;3.70;;
20731;SDS011;10527;52.124;5.196;2023-07-24T06:11:13;4.63;;;2.88;;
20731;SDS011;10527;52.124;5.196;2023-07-24T06:13:40;6.32;;;3.47;;
20731;SDS011;10527;52.124;5.196;2023-07-24T06:16:07;4.30;;;2.75;;
20731;SDS011;10527;52.124;5.196;2023-07-24T06:18:34;4.45;;;3.05;;
20731;SDS011;10527;52.124;5.196;2023-07-24T06:21:01;6.30;;;3.53;;
20731;SDS011;10527;52.124;5.196;2023-07-24T06:23:29;3.97;;;2.90;;
20731;SDS011;10527;52.124;5.196;2023-07-24T06:25:55;6.07;;;3.55;;
20731;SDS011;10527;52.124;5.196;2023-07-24T06:28:22;5.38;;;3.15;;
20731;SDS011;10527;52.124;5.196;2023-07-24T06:30:51;6.13;;;3.25;;
20731;SDS011;10527;52.124;5.196;2023-07-24T06:33:20;6.28;;;3.30;;
20731;SDS011;10527;52.124;5.196;2023-07-24T06:35:50;6.40;;;3.17;;
20731;SDS011;10527;52.124;5.196;2023-07-24T06:38:17;5.47;;;3.25;;
20731;SDS011;10527;52.124;5.196;2023-07-24T06:40:44;6.53;;;3.25;;
20731;SDS011;10527;52.124;5.196;2023-07-24T06:43:11;7.18;;;3.28;;
20731;SDS011;10527;52.124;5.196;2023-07-24T06:45:38;6.55;;;3.40;;
20731;SDS011;10527;52.124;5.196;2023-07-24T06:48:04;5.50;;;3.40;;
20731;SDS011;10527;52.124;5.196;2023-07-24T06:50:31;5.50;;;2.97;;
20731;SDS011;10527;52.124;5.196;2023-07-24T06:52:58;8.98;;;3.80;;
20731;SDS011;10527;52.124;5.196;2023-07-24T06:55:25;5.82;;;3.45;;
20731;SDS011;10527;52.124;5.196;2023-07-24T06:57:54;5.85;;;3.28;;
20731;SDS011;10527;52.124;5.196;2023-07-24T07:00:21;4.63;;;2.80;;
20731;SDS011;10527;52.124;5.196;2023-07-24T07:02:48;7.18;;;4.88;;
20731;SDS011;10527;52.124;5.196;2023-07-24T07:05:15;5.20;;;3.08;;
20731;SDS011;10527;52.124;5.196;2023-07-24T07:07:42;6.03;;;3.78;;
20731;SDS011;10527;52.124;5.196;2023-07-24T07:10:08;6.35;;;3.20;;
20731;SDS011;10527;52.124;5.196;2023-07-24T07:12:35;7.20;;;3.47;;
20731;SDS011;10527;52.124;5.196;2023-07-24T07:15:02;7.72;;;4.43;;
20731;SDS011;10527;52.124;5.196;2023-07-24T07:17:30;7.60;;;3.88;;
20731;SDS011;10527;52.124;5.196;2023-07-24T07:19:57;8.23;;;3.92;;
20731;SDS011;10527;52.124;5.196;2023-07-24T07:22:24;4.85;;;3.33;;
20731;SDS011;10527;52.124;5.196;2023-07-24T07:24:50;8.70;;;3.50;;
20731;SDS011;10527;52.124;5.196;2023-07-24T07:27:17;7.93;;;3.53;;
20731;SDS011;10527;52.124;5.196;2023-07-24T07:29:44;6.68;;;3.20;;
20731;SDS011;10527;52.124;5.196;2023-07-24T07:32:11;8.07;;;3.70;;
20731;SDS011;10527;52.124;5.196;2023-07-24T07:34:38;5.20;;;2.80;;
20731;SDS011;10527;52.124;5.196;2023-07-24T07:37:05;5.82;;;3.17;;
20731;SDS011;10527;52.124;5.196;2023-07-24T07:39:33;3.85;;;2.63;;
20731;SDS011;10527;52.124;5.196;2023-07-24T07:42:00;5.72;;;4.20;;
20731;SDS011;10527;52.124;5.196;2023-07-24T07:44:42;7.93;;;3.05;;
20731;SDS011;10527;52.124;5.196;2023-07-24T07:47:09;6.93;;;2.80;;
20731;SDS011;10527;52.124;5.196;2023-07-24T07:49:36;5.93;;;3.15;;
20731;SDS011;10527;52.124;5.196;2023-07-24T07:52:03;4.30;;;2.60;;
20731;SDS011;10527;52.124;5.196;2023-07-24T07:54:33;6.10;;;3.13;;
20731;SDS011;10527;52.124;5.196;2023-07-24T07:57:00;5.72;;;2.63;;
20731;SDS011;10527;52.124;5.196;2023-07-24T07:59:27;4.82;;;2.70;;
20731;SDS011;10527;52.124;5.196;2023-07-24T08:01:54;6.07;;;3.28;;
20731;SDS011;10527;52.124;5.196;2023-07-24T08:04:22;5.57;;;3.05;;
20731;SDS011;10527;52.124;5.196;2023-07-24T08:06:49;6.32;;;3.08;;
20731;SDS011;10527;52.124;5.196;2023-07-24T08:09:16;9.93;;;3.97;;
20731;SDS011;10527;52.124;5.196;2023-07-24T08:11:43;4.80;;;3.13;;
20731;SDS011;10527;52.124;5.196;2023-07-24T08:14:10;7.40;;;3.05;;
20731;SDS011;10527;52.124;5.196;2023-07-24T08:16:37;8.23;;;4.10;;
20731;SDS011;10527;52.124;5.196;2023-07-24T08:19:04;6.63;;;3.42;;
20731;SDS011;10527;52.124;5.196;2023-07-24T08:21:31;6.13;;;3.10;;
20731;SDS011;10527;52.124;5.196;2023-07-24T08:23:58;4.50;;;3.03;;
20731;SDS011;10527;52.124;5.196;2023-07-24T08:26:28;6.47;;;3.30;;
20731;SDS011;10527;52.124;5.196;2023-07-24T08:28:55;6.75;;;3.17;;
20731;SDS011;10527;52.124;5.196;2023-07-24T08:31:22;6.82;;;3.40;;
20731;SDS011;10527;52.124;5.196;2023-07-24T08:33:49;5.75;;;3.15;;
20731;SDS011;10527;52.124;5.196;2023-07-24T08:36:16;6.53;;;3.67;;
20731;SDS011;10527;52.124;5.196;2023-07-24T08:38:43;8.18;;;3.30;;
20731;SDS011;10527;52.124;5.196;2023-07-24T08:41:10;5.90;;;4.10;;
20731;SDS011;10527;52.124;5.196;2023-07-24T08:43:39;6.60;;;3.55;;
20731;SDS011;10527;52.124;5.196;2023-07-24T08:46:09;5.97;;;3.40;;
20731;SDS011;10527;52.124;5.196;2023-07-24T08:48:37;5.72;;;3.55;;
20731;SDS011;10527;52.124;5.196;2023-07-24T08:51:08;5.78;;;3.00;;
20731;SDS011;10527;52.124;5.196;2023-07-24T08:53:42;3.70;;;2.40;;
20731;SDS011;10527;52.124;5.196;2023-07-24T08:56:10;7.07;;;3.60;;
20731;SDS011;10527;52.124;5.196;2023-07-24T08:58:45;6.13;;;2.88;;
20731;SDS011;10527;52.124;5.196;2023-07-24T09:01:12;8.27;;;2.78;;
20731;SDS011;10527;52.124;5.196;2023-07-24T09:03:39;5.47;;;3.17;;
20731;SDS011;10527;52.124;5.196;2023-07-24T09:06:06;10.45;;;4.72;;
20731;SDS011;10527;52.124;5.196;2023-07-24T09:08:41;4.55;;;2.83;;
20731;SDS011;10527;52.124;5.196;2023-07-24T09:11:09;5.32;;;3.00;;
20731;SDS011;10527;52.124;5.196;2023-07-24T09:13:43;5.22;;;2.85;;
20731;SDS011;10527;52.124;5.196;2023-07-24T09:16:21;6.57;;;3.28;;
20731;SDS011;10527;52.124;5.196;2023-07-24T09:18:53;4.78;;;2.95;;
20731;SDS011;10527;52.124;5.196;2023-07-24T09:21:29;6.18;;;2.60;;
20731;SDS011;10527;52.124;5.196;2023-07-24T09:24:08;4.78;;;3.58;;
20731;SDS011;10527;52.124;5.196;2023-07-24T09:26:49;6.47;;;3.60;;
20731;SDS011;10527;52.124;5.196;2023-07-24T09:29:29;3.78;;;2.92;;
20731;SDS011;10527;52.124;5.196;2023-07-24T09:31:58;6.13;;;3.42;;
20731;SDS011;10527;52.124;5.196;2023-07-24T09:34:26;4.80;;;3.25;;
20731;SDS011;10527;52.124;5.196;2023-07-24T09:36:53;8.07;;;4.00;;
20731;SDS011;10527;52.124;5.196;2023-07-24T09:39:23;7.80;;;4.15;;
20731;SDS011;10527;52.124;5.196;2023-07-24T09:42:02;6.18;;;4.28;;
20731;SDS011;10527;52.124;5.196;2023-07-24T09:44:32;6.18;;;4.22;;
20731;SDS011;10527;52.124;5.196;2023-07-24T09:46:59;7.68;;;3.83;;
20731;SDS011;10527;52.124;5.196;2023-07-24T09:49:47;5.47;;;3.20;;
20731;SDS011;10527;52.124;5.196;2023-07-24T09:52:15;7.90;;;4.07;;
20731;SDS011;10527;52.124;5.196;2023-07-24T09:54:55;5.40;;;3.15;;
20731;SDS011;10527;52.124;5.196;2023-07-24T09:57:25;4.68;;;3.40;;
20731;SDS011;10527;52.124;5.196;2023-07-24T09:59:55;5.95;;;3.55;;
20731;SDS011;10527;52.124;5.196;2023-07-24T10:02:24;7.32;;;3.33;;
20731;SDS011;10527;52.124;5.196;2023-07-24T10:04:52;4.50;;;3.05;;
20731;SDS011;10527;52.124;5.196;2023-07-24T10:07:22;4.78;;;2.75;;
20731;SDS011;10527;52.124;5.196;2023-07-24T10:09:50;4.18;;;3.10;;
20731;SDS011;10527;52.124;5.196;2023-07-24T10:12:19;5.40;;;2.50;;
20731;SDS011;10527;52.124;5.196;2023-07-24T10:14:47;6.00;;;3.05;;
20731;SDS011;10527;52.124;5.196;2023-07-24T10:17:20;6.82;;;2.88;;
20731;SDS011;10527;52.124;5.196;2023-07-24T10:20:05;5.45;;;2.55;;
20731;SDS011;10527;52.124;5.196;2023-07-24T10:22:35;6.05;;;3.20;;
20731;SDS011;10527;52.124;5.196;2023-07-24T10:25:07;4.57;;;3.13;;
20731;SDS011;10527;52.124;5.196;2023-07-24T10:27:41;9.00;;;3.00;;
20731;SDS011;10527;52.124;5.196;2023-07-24T10:30:10;4.70;;;2.70;;
20731;SDS011;10527;52.124;5.196;2023-07-24T10:33:31;6.47;;;2.92;;
20731;SDS011;10527;52.124;5.196;2023-07-24T10:36:05;6.65;;;3.20;;
20731;SDS011;10527;52.124;5.196;2023-07-24T10:38:36;6.25;;;3.58;;
20731;SDS011;10527;52.124;5.196;2023-07-24T10:41:07;5.43;;;3.33;;
20731;SDS011;10527;52.124;5.196;2023-07-24T10:43:46;5.57;;;3.17;;
20731;SDS011;10527;52.124;5.196;2023-07-24T10:46:39;6.25;;;3.30;;
20731;SDS011;10527;52.124;5.196;2023-07-24T10:49:09;5.25;;;3.00;;
20731;SDS011;10527;52.124;5.196;2023-07-24T10:51:38;5.63;;;3.17;;
20731;SDS011;10527;52.124;5.196;2023-07-24T10:54:05;3.45;;;2.88;;
20731;SDS011;10527;52.124;5.196;2023-07-24T10:56:32;4.97;;;3.05;;
20731;SDS011;10527;52.124;5.196;2023-07-24T10:59:05;4.95;;;3.08;;
20731;SDS011;10527;52.124;5.196;2023-07-24T11:01:33;4.28;;;2.90;;
20731;SDS011;10527;52.124;5.196;2023-07-24T11:04:01;7.47;;;3.97;;
20731;SDS011;10527;52.124;5.196;2023-07-24T11:06:28;4.97;;;2.88;;
20731;SDS011;10527;52.124;5.196;2023-07-24T11:08:57;6.38;;;3.10;;
20731;SDS011;10527;52.124;5.196;2023-07-24T11:11:29;9.30;;;3.85;;
20731;SDS011;10527;52.124;5.196;2023-07-24T11:13:58;7.88;;;3.60;;
20731;SDS011;10527;52.124;5.196;2023-07-24T11:16:27;4.28;;;2.92;;
20731;SDS011;10527;52.124;5.196;2023-07-24T11:19:00;3.85;;;2.78;;
20731;SDS011;10527;52.124;5.196;2023-07-24T11:21:29;4.68;;;2.80;;
20731;SDS011;10527;52.124;5.196;2023-07-24T11:23:57;5.43;;;3.10;;
20731;SDS011;10527;52.124;5.196;2023-07-24T11:26:24;5.63;;;2.60;;
20731;SDS011;10527;52.124;5.196;2023-07-24T11:28:53;8.05;;;3.67;;
20731;SDS011;10527;52.124;5.196;2023-07-24T11:31:20;4.63;;;3.30;;
20731;SDS011;10527;52.124;5.196;2023-07-24T11:33:48;6.30;;;3.90;;
20731;SDS011;10527;52.124;5.196;2023-07-24T11:36:18;5.88;;;2.65;;
20731;SDS011;10527;52.124;5.196;2023-07-24T11:38:45;5.10;;;3.15;;
20731;SDS011;10527;52.124;5.196;2023-07-24T11:41:16;5.43;;;2.67;;
20731;SDS011;10527;52.124;5.196;2023-07-24T11:43:45;7.88;;;3.47;;
20731;SDS011;10527;52.124;5.196;2023-07-24T11:46:22;6.85;;;3.30;;
20731;SDS011;10527;52.124;5.196;2023-07-24T11:48:54;4.65;;;3.70;;
20731;SDS011;10527;52.124;5.196;2023-07-24T11:51:27;5.65;;;2.70;;
20731;SDS011;10527;52.124;5.196;2023-07-24T11:54:06;5.25;;;2.60;;
20731;SDS011;10527;52.124;5.196;2023-07-24T11:56:39;3.75;;;2.70;;
20731;SDS011;10527;52.124;5.196;2023-07-24T11:59:13;6.32;;;2.67;;
20731;SDS011;10527;52.124;5.196;2023-07-24T12:01:41;4.75;;;2.33;;
20731;SDS011;10527;52.124;5.196;2023-07-24T12:04:14;5.25;;;2.60;;
20731;SDS011;10527;52.124;5.196;2023-07-24T12:06:42;4.18;;;2.35;;
20731;SDS011;10527;52.124;5.196;2023-07-24T12:09:13;4.95;;;2.38;;
20731;SDS011;10527;52.124;5.196;2023-07-24T12:11:43;6.32;;;3.03;;
20731;SDS011;10527;52.124;5.196;2023-07-24T12:14:29;4.13;;;2.58;;
20731;SDS011;10527;52.124;5.196;2023-07-24T12:17:03;4.88;;;2.67;;
20731;SDS011;10527;52.124;5.196;2023-07-24T12:19:36;6.47;;;3.30;;
20731;SDS011;10527;52.124;5.196;2023-07-24T12:22:05;5.43;;;2.65;;
20731;SDS011;10527;52.124;5.196;2023-07-24T12:24:33;7.75;;;4.15;;
20731;SDS011;10527;52.124;5.196;2023-07-24T12:27:00;4.63;;;3.10;;
20731;SDS011;10527;52.124;5.196;2023-07-24T12:29:27;7.03;;;4.30;;
20731;SDS011;10527;52.124;5.196;2023-07-24T12:31:54;5.28;;;2.30;;
20731;SDS011;10527;52.124;5.196;2023-07-24T12:34:20;3.80;;;2.42;;
20731;SDS011;10527;52.124;5.196;2023-07-24T12:36:47;4.22;;;2.05;;
20731;SDS011;10527;52.124;5.196;2023-07-24T12:39:14;4.10;;;2.30;;
20731;SDS011;10527;52.124;5.196;2023-07-24T12:41:41;4.43;;;2.22;;
20731;SDS011;10527;52.124;5.196;2023-07-24T12:44:08;4.90;;;3.15;;
20731;SDS011;10527;52.124;5.196;2023-07-24T12:46:35;6.57;;;4.22;;
20731;SDS011;10527;52.124;5.196;2023-07-24T12:49:01;6.20;;;4.70;;
20731;SDS011;10527;52.124;5.196;2023-07-24T12:51:28;7.15;;;4.78;;
20731;SDS011;10527;52.124;5.196;2023-07-24T12:53:57;8.00;;;5.35;;
20731;SDS011;10527;52.124;5.196;2023-07-24T12:56:44;7.75;;;5.63;;
20731;SDS011;10527;52.124;5.196;2023-07-24T12:59:12;9.90;;;5.60;;
20731;SDS011;10527;52.124;5.196;2023-07-24T13:01:39;8.20;;;5.18;;
20731;SDS011;10527;52.124;5.196;2023-07-24T13:04:07;12.25;;;5.80;;
20731;SDS011;10527;52.124;5.196;2023-07-24T13:06:35;6.30;;;4.68;;
20731;SDS011;10527;52.124;5.196;2023-07-24T13:09:02;10.18;;;4.63;;
20731;SDS011;10527;52.124;5.196;2023-07-24T13:11:30;3.53;;;2.83;;
20731;SDS011;10527;52.124;5.196;2023-07-24T13:13:58;3.22;;;2.92;;
20731;SDS011;10527;52.124;5.196;2023-07-24T13:16:24;2.60;;;2.35;;
20731;SDS011;10527;52.124;5.196;2023-07-24T13:18:53;2.53;;;2.25;;
20731;SDS011;10527;52.124;5.196;2023-07-24T13:21:20;3.00;;;2.50;;
20731;SDS011;10527;52.124;5.196;2023-07-24T13:23:47;3.53;;;2.10;;
20731;SDS011;10527;52.124;5.196;2023-07-24T13:26:14;2.20;;;1.90;;
20731;SDS011;10527;52.124;5.196;2023-07-24T13:28:41;3.83;;;2.65;;
20731;SDS011;10527;52.124;5.196;2023-07-24T13:31:16;3.00;;;1.83;;
20731;SDS011;10527;52.124;5.196;2023-07-24T13:33:48;2.92;;;2.10;;
20731;SDS011;10527;52.124;5.196;2023-07-24T13:36:15;4.05;;;1.83;;
20731;SDS011;10527;52.124;5.196;2023-07-24T13:38:42;2.28;;;1.83;;
20731;SDS011;10527;52.124;5.196;2023-07-24T13:41:09;2.47;;;1.40;;
20731;SDS011;10527;52.124;5.196;2023-07-24T13:43:36;2.35;;;1.73;;
20731;SDS011;10527;52.124;5.196;2023-07-24T13:46:02;3.05;;;1.60;;
20731;SDS011;10527;52.124;5.196;2023-07-24T13:48:30;2.38;;;1.52;;
20731;SDS011;10527;52.124;5.196;2023-07-24T13:50:57;2.08;;;1.58;;
20731;SDS011;10527;52.124;5.196;2023-07-24T13:53:24;5.70;;;1.77;;
20731;SDS011;10527;52.124;5.196;2023-07-24T13:55:51;2.88;;;1.42;;
20731;SDS011;10527;52.124;5.196;2023-07-24T13:58:18;2.30;;;1.58;;
20731;SDS011;10527;52.124;5.196;2023-07-24T14:00:45;2.95;;;1.30;;
20731;SDS011;10527;52.124;5.196;2023-07-24T14:03:12;3.88;;;1.52;;
20731;SDS011;10527;52.124;5.196;2023-07-24T14:05:38;3.42;;;1.58;;
20731;SDS011;10527;52.124;5.196;2023-07-24T14:08:07;2.22;;;1.30;;
20731;SDS011;10527;52.124;5.196;2023-07-24T14:10:34;3.08;;;1.52;;
20731;SDS011;10527;52.124;5.196;2023-07-24T14:13:02;2.58;;;1.38;;
20731;SDS011;10527;52.124;5.196;2023-07-24T14:15:30;3.10;;;1.58;;
20731;SDS011;10527;52.124;5.196;2023-07-24T14:17:56;3.20;;;1.30;;
20731;SDS011;10527;52.124;5.196;2023-07-24T14:20:26;2.55;;;1.00;;
20731;SDS011;10527;52.124;5.196;2023-07-24T14:22:53;4.10;;;2.08;;
20731;SDS011;10527;52.124;5.196;2023-07-24T14:25:21;2.15;;;1.00;;
20731;SDS011;10527;52.124;5.196;2023-07-24T14:27:50;3.63;;;1.30;;
20731;SDS011;10527;52.124;5.196;2023-07-24T14:30:17;4.30;;;1.33;;
20731;SDS011;10527;52.124;5.196;2023-07-24T14:32:44;4.88;;;1.55;;
20731;SDS011;10527;52.124;5.196;2023-07-24T14:35:16;4.82;;;1.30;;
20731;SDS011;10527;52.124;5.196;2023-07-24T14:37:44;3.33;;;1.40;;
20731;SDS011;10527;52.124;5.196;2023-07-24T14:40:11;5.18;;;1.52;;
20731;SDS011;10527;52.124;5.196;2023-07-24T14:42:38;2.13;;;1.10;;
20731;SDS011;10527;52.124;5.196;2023-07-24T14:45:05;2.38;;;1.13;;
20731;SDS011;10527;52.124;5.196;2023-07-24T14:47:33;4.10;;;1.55;;
20731;SDS011;10527;52.124;5.196;2023-07-24T14:50:00;2.63;;;1.23;;
20731;SDS011;10527;52.124;5.196;2023-07-24T14:52:26;3.53;;;1.20;;
20731;SDS011;10527;52.124;5.196;2023-07-24T14:54:53;2.38;;;1.02;;
20731;SDS011;10527;52.124;5.196;2023-07-24T14:57:20;2.95;;;1.38;;
20731;SDS011;10527;52.124;5.196;2023-07-24T14:59:51;2.40;;;0.93;;